createdAt,value
2017-10-14T00:00:29.983Z,101317.48
2017-10-14T00:01:36.015Z,101319.11
2017-10-14T00:02:42.192Z,101318.91
2017-10-14T00:03:48.089Z,101325.09
2017-10-14T00:04:54.077Z,101327.20
2017-10-14T00:06:00.034Z,101321.47
2017-10-14T00:07:05.684Z,101323.85
2017-10-14T00:08:11.569Z,101321.08
2017-10-14T00:09:17.529Z,101326.08
2017-10-14T00:10:24.243Z,101327.83
2017-10-14T00:11:30.066Z,101326.55
2017-10-14T00:12:35.645Z,101332.40
2017-10-14T00:13:41.457Z,101328.20
2017-10-14T00:14:47.222Z,101328.16
2017-10-14T00:15:52.804Z,101328.36
2017-10-14T00:16:58.590Z,101336.13
2017-10-14T00:18:04.409Z,101335.98
2017-10-14T00:19:10.188Z,101340.08
2017-10-14T00:20:15.773Z,101337.73
2017-10-14T00:21:22.292Z,101335.33
2017-10-14T00:22:28.069Z,101340.80
2017-10-14T00:23:34.583Z,101340.45
2017-10-14T00:24:40.363Z,101343.88
2017-10-14T00:25:46.888Z,101340.20
2017-10-14T00:26:52.647Z,101345.00
2017-10-14T00:27:58.426Z,101344.73
2017-10-14T00:29:04.945Z,101342.20
2017-10-14T00:30:12.241Z,101348.40
2017-10-14T00:31:18.773Z,101350.44
2017-10-14T00:32:25.098Z,101344.88
2017-10-14T00:33:30.862Z,101346.56
2017-10-14T00:34:36.624Z,101341.09
2017-10-14T00:35:42.423Z,101349.46
2017-10-14T00:36:48.183Z,101342.52
2017-10-14T00:37:53.944Z,101346.13
2017-10-14T00:38:59.704Z,101344.51
2017-10-14T00:40:05.484Z,101348.05
2017-10-14T00:41:11.364Z,101344.51
2017-10-14T00:42:16.936Z,101345.60
2017-10-14T00:43:23.477Z,101349.15
2017-10-14T00:44:29.567Z,101354.59
2017-10-14T00:45:35.133Z,101351.55
2017-10-14T00:46:40.916Z,101357.50
2017-10-14T00:47:47.432Z,101356.34
2017-10-14T00:48:53.189Z,101355.14
2017-10-14T00:49:58.990Z,101350.39
2017-10-14T00:51:05.342Z,101352.04
2017-10-14T00:52:11.136Z,101350.36
2017-10-14T00:53:16.912Z,101349.39
2017-10-14T00:54:23.439Z,101351.02
2017-10-14T00:55:28.504Z,101354.44
2017-10-14T00:56:33.919Z,101355.64
2017-10-14T00:57:39.796Z,101346.92
2017-10-14T00:58:45.224Z,101359.07
2017-10-14T00:59:50.363Z,101353.94
2017-10-14T01:00:55.787Z,101354.81
2017-10-14T01:02:01.937Z,101354.23
2017-10-14T01:03:07.727Z,101356.92
2017-10-14T01:04:13.494Z,101355.37
2017-10-14T01:05:20.241Z,101349.73
2017-10-14T01:06:26.424Z,101346.70
2017-10-14T01:07:32.960Z,101351.17
2017-10-14T01:08:38.747Z,101349.44
2017-10-14T01:09:44.557Z,101345.51
2017-10-14T01:10:50.734Z,101349.37
2017-10-14T01:11:56.504Z,101346.72
2017-10-14T01:13:02.269Z,101346.80
2017-10-14T01:14:07.377Z,101347.15
2017-10-14T01:15:13.137Z,101348.82
2017-10-14T01:16:18.906Z,101353.22
2017-10-14T01:17:25.450Z,101347.22
2017-10-14T01:18:32.725Z,101348.17
2017-10-14T01:19:38.589Z,101347.62
2017-10-14T01:20:44.236Z,101344.39
2017-10-14T01:21:49.312Z,101343.19
2017-10-14T01:22:55.008Z,101338.33
2017-10-14T01:24:00.073Z,101345.06
2017-10-14T01:25:05.532Z,101340.91
2017-10-14T01:26:12.131Z,101342.52
2017-10-14T01:27:17.535Z,101341.30
2017-10-14T01:28:23.709Z,101340.11
2017-10-14T01:29:29.121Z,101346.80
2017-10-14T01:30:35.667Z,101341.30
2017-10-14T01:31:41.085Z,101348.00
2017-10-14T01:32:46.153Z,101339.63
2017-10-14T01:33:52.332Z,101340.61
2017-10-14T01:34:58.104Z,101346.72
2017-10-14T01:36:03.202Z,101342.05
2017-10-14T01:37:08.625Z,101340.65
2017-10-14T01:38:14.058Z,101344.08
2017-10-14T01:39:19.125Z,101338.67
2017-10-14T01:40:24.192Z,101344.16
2017-10-14T01:41:30.399Z,101333.62
2017-10-14T01:42:35.822Z,101340.86
2017-10-14T01:43:41.330Z,101340.36
2017-10-14T01:44:46.396Z,101338.06
2017-10-14T01:45:51.477Z,101344.83
2017-10-14T01:46:57.260Z,101344.67
2017-10-14T01:48:02.544Z,101348.53
2017-10-14T01:49:07.949Z,101343.20
2017-10-14T01:50:13.035Z,101341.22
2017-10-14T01:51:18.101Z,101344.45
2017-10-14T01:52:23.540Z,101343.74
2017-10-14T01:53:29.382Z,101341.02
2017-10-14T01:54:35.218Z,101341.38
2017-10-14T01:55:40.280Z,101341.25
2017-10-14T01:56:45.352Z,101340.59
2017-10-14T01:57:52.671Z,101341.79
2017-10-14T01:58:58.846Z,101341.64
2017-10-14T02:00:04.616Z,101335.84
2017-10-14T02:01:10.413Z,101341.09
2017-10-14T02:02:16.173Z,101334.48
2017-10-14T02:03:21.968Z,101334.05
2017-10-14T02:04:27.733Z,101331.59
2017-10-14T02:05:33.495Z,101329.10
2017-10-14T02:06:39.272Z,101328.16
2017-10-14T02:07:45.079Z,101333.98
2017-10-14T02:08:50.885Z,101335.37
2017-10-14T02:09:57.224Z,101336.64
2017-10-14T02:11:02.988Z,101333.80
2017-10-14T02:12:09.518Z,101330.30
2017-10-14T02:13:15.276Z,101327.76
2017-10-14T02:14:21.843Z,101327.09
2017-10-14T02:15:28.368Z,101322.88
2017-10-14T02:16:34.142Z,101324.38
2017-10-14T02:17:39.930Z,101318.55
2017-10-14T02:18:45.710Z,101321.43
2017-10-14T02:19:51.492Z,101318.06
2017-10-14T02:20:57.253Z,101319.94
2017-10-14T02:22:03.016Z,101317.52
2017-10-14T02:23:08.777Z,101318.89
2017-10-14T02:24:14.087Z,101317.17
2017-10-14T02:25:19.665Z,101318.09
2017-10-14T02:26:26.195Z,101315.75
2017-10-14T02:27:31.958Z,101321.94
2017-10-14T02:28:37.716Z,101314.53
2017-10-14T02:29:44.292Z,101311.21
2017-10-14T02:30:50.084Z,101314.08
2017-10-14T02:31:56.425Z,101317.69
2017-10-14T02:33:02.003Z,101319.23
2017-10-14T02:34:08.532Z,101321.98
2017-10-14T02:35:14.302Z,101312.66
2017-10-14T02:36:20.858Z,101321.47
2017-10-14T02:37:27.387Z,101314.31
2017-10-14T02:38:33.156Z,101312.56
2017-10-14T02:39:39.696Z,101314.14
2017-10-14T02:40:45.474Z,101311.37
2017-10-14T02:41:52.021Z,101312.70
2017-10-14T02:42:58.570Z,101310.09
2017-10-14T02:44:04.132Z,101311.94
2017-10-14T02:45:10.694Z,101303.44
2017-10-14T02:46:17.253Z,101305.23
2017-10-14T02:47:23.808Z,101304.89
2017-10-14T02:48:30.337Z,101309.59
2017-10-14T02:49:36.104Z,101303.52
2017-10-14T02:50:42.645Z,101306.22
2017-10-14T02:51:48.440Z,101299.17
2017-10-14T02:52:54.020Z,101301.34
2017-10-14T02:53:59.611Z,101308.96
2017-10-14T02:55:05.378Z,101303.44
2017-10-14T02:56:11.156Z,101310.95
2017-10-14T02:57:16.729Z,101306.84
2017-10-14T02:58:22.773Z,101307.74
2017-10-14T02:59:28.534Z,101312.84
2017-10-14T03:00:34.300Z,101305.19
2017-10-14T03:01:40.061Z,101304.22
2017-10-14T03:02:45.946Z,101302.05
2017-10-14T03:03:51.525Z,101304.73
2017-10-14T03:04:57.371Z,101311.44
2017-10-14T03:06:03.132Z,101300.42
2017-10-14T03:07:08.889Z,101309.48
2017-10-14T03:08:15.426Z,101305.04
2017-10-14T03:09:21.210Z,101305.69
2017-10-14T03:10:26.976Z,101307.31
2017-10-14T03:11:32.746Z,101305.48
2017-10-14T03:12:39.268Z,101308.34
2017-10-14T03:13:45.028Z,101310.02
2017-10-14T03:14:50.640Z,101304.22
2017-10-14T03:15:56.443Z,101310.84
2017-10-14T03:17:02.013Z,101305.68
2017-10-14T03:18:07.804Z,101306.55
2017-10-14T03:19:13.609Z,101309.57
2017-10-14T03:20:19.431Z,101307.48
2017-10-14T03:21:25.193Z,101305.13
2017-10-14T03:22:30.960Z,101307.66
2017-10-14T03:23:36.728Z,101305.01
2017-10-14T03:24:42.503Z,101309.16
2017-10-14T03:25:48.288Z,101312.27
2017-10-14T03:26:54.057Z,101304.87
2017-10-14T03:27:59.804Z,101301.58
2017-10-14T03:29:06.336Z,101303.81
2017-10-14T03:30:12.106Z,101304.45
2017-10-14T03:31:18.711Z,101309.28
2017-10-14T03:32:24.492Z,101304.79
2017-10-14T03:33:30.257Z,101308.98
2017-10-14T03:34:36.780Z,101310.39
2017-10-14T03:35:42.559Z,101300.94
2017-10-14T03:36:49.113Z,101303.33
2017-10-14T03:37:55.648Z,101299.27
2017-10-14T03:39:02.177Z,101306.33
2017-10-14T03:40:07.956Z,101299.14
2017-10-14T03:41:13.719Z,101298.59
2017-10-14T03:42:20.276Z,101302.52
2017-10-14T03:43:26.816Z,101300.42
2017-10-14T03:44:32.576Z,101303.34
2017-10-14T03:45:39.124Z,101302.52
2017-10-14T03:46:44.916Z,101296.70
2017-10-14T03:47:50.714Z,101305.00
2017-10-14T03:48:56.474Z,101299.41
2017-10-14T03:50:03.004Z,101300.42
2017-10-14T03:51:09.540Z,101299.09
2017-10-14T03:52:15.353Z,101298.93
2017-10-14T03:53:21.137Z,101302.48
2017-10-14T03:54:26.918Z,101300.47
2017-10-14T03:55:33.246Z,101304.36
2017-10-14T03:56:39.035Z,101300.55
2017-10-14T03:57:45.551Z,101303.80
2017-10-14T03:58:51.146Z,101300.08
2017-10-14T03:59:56.913Z,101306.92
2017-10-14T04:01:02.695Z,101304.61
2017-10-14T04:02:09.252Z,101298.67
2017-10-14T04:03:15.853Z,101303.03
2017-10-14T04:04:21.759Z,101300.69
2017-10-14T04:05:28.276Z,101300.85
2017-10-14T04:06:33.865Z,101301.96
2017-10-14T04:07:39.641Z,101296.49
2017-10-14T04:08:45.660Z,101295.52
2017-10-14T04:09:51.451Z,101297.81
2017-10-14T04:10:57.256Z,101297.22
2017-10-14T04:12:03.503Z,101301.11
2017-10-14T04:13:09.266Z,101294.78
2017-10-14T04:14:15.034Z,101305.13
2017-10-14T04:15:20.826Z,101296.44
2017-10-14T04:16:26.583Z,101301.67
2017-10-14T04:17:32.371Z,101302.78
2017-10-14T04:18:38.146Z,101302.91
2017-10-14T04:19:43.908Z,101298.29
2017-10-14T04:20:49.524Z,101302.35
2017-10-14T04:21:56.056Z,101306.67
2017-10-14T04:23:01.649Z,101305.00
2017-10-14T04:24:07.447Z,101304.53
2017-10-14T04:25:13.196Z,101312.88
2017-10-14T04:26:19.760Z,101311.59
2017-10-14T04:27:26.295Z,101302.09
2017-10-14T04:28:32.057Z,101305.05
2017-10-14T04:29:38.382Z,101301.84
2017-10-14T04:30:44.146Z,101303.94
2017-10-14T04:31:50.488Z,101302.44
2017-10-14T04:32:56.249Z,101309.96
2017-10-14T04:34:02.797Z,101307.45
2017-10-14T04:35:09.327Z,101309.70
2017-10-14T04:36:15.095Z,101301.75
2017-10-14T04:37:20.881Z,101302.14
2017-10-14T04:38:26.644Z,101293.92
2017-10-14T04:39:32.413Z,101300.73
2017-10-14T04:40:38.188Z,101295.85
2017-10-14T04:41:43.768Z,101296.28
2017-10-14T04:42:49.368Z,101299.36
2017-10-14T04:43:55.136Z,101296.15
2017-10-14T04:45:00.904Z,101290.08
2017-10-14T04:46:06.665Z,101290.77
2017-10-14T04:47:13.197Z,101290.63
2017-10-14T04:48:18.988Z,101287.69
2017-10-14T04:49:24.572Z,101292.86
2017-10-14T04:50:30.384Z,101293.80
2017-10-14T04:51:36.157Z,101293.06
2017-10-14T04:52:41.970Z,101296.27
2017-10-14T04:53:47.763Z,101301.36
2017-10-14T04:54:54.283Z,101297.17
2017-10-14T04:56:00.053Z,101300.89
2017-10-14T04:57:05.816Z,101301.41
2017-10-14T04:58:12.343Z,101291.95
2017-10-14T04:59:18.144Z,101295.16
2017-10-14T05:00:24.676Z,101286.64
2017-10-14T05:01:30.245Z,101292.77
2017-10-14T05:02:36.020Z,101294.09
2017-10-14T05:03:41.808Z,101289.77
2017-10-14T05:04:48.360Z,101294.30
2017-10-14T05:05:54.705Z,101293.59
2017-10-14T05:07:00.477Z,101287.46
2017-10-14T05:08:07.002Z,101295.28
2017-10-14T05:09:12.798Z,101291.44
2017-10-14T05:10:18.403Z,101290.41
2017-10-14T05:11:24.933Z,101291.23
2017-10-14T05:12:31.460Z,101289.90
2017-10-14T05:13:37.255Z,101286.43
2017-10-14T05:14:43.280Z,101292.03
2017-10-14T05:15:49.060Z,101293.87
2017-10-14T05:16:55.594Z,101289.49
2017-10-14T05:18:02.884Z,101290.09
2017-10-14T05:19:09.443Z,101290.23
2017-10-14T05:20:15.204Z,101291.22
2017-10-14T05:21:21.761Z,101288.05
2017-10-14T05:22:28.100Z,101291.77
2017-10-14T05:23:35.368Z,101292.25
2017-10-14T05:24:41.146Z,101293.78
2017-10-14T05:25:47.674Z,101289.30
2017-10-14T05:26:53.465Z,101284.20
2017-10-14T05:27:59.235Z,101292.45
2017-10-14T05:29:05.005Z,101285.70
2017-10-14T05:30:10.766Z,101288.69
2017-10-14T05:31:16.348Z,101291.64
2017-10-14T05:32:21.957Z,101294.66
2017-10-14T05:33:27.732Z,101288.59
2017-10-14T05:34:33.501Z,101292.36
2017-10-14T05:35:39.260Z,101298.38
2017-10-14T05:36:45.812Z,101294.27
2017-10-14T05:37:52.377Z,101296.16
2017-10-14T05:38:58.901Z,101295.99
2017-10-14T05:40:04.483Z,101301.52
2017-10-14T05:41:11.004Z,101292.91
2017-10-14T05:42:16.772Z,101294.32
2017-10-14T05:43:23.324Z,101296.98
2017-10-14T05:44:29.923Z,101294.96
2017-10-14T05:45:35.677Z,101289.95
2017-10-14T05:46:41.449Z,101295.38
2017-10-14T05:47:47.212Z,101290.08
2017-10-14T05:48:52.996Z,101292.73
2017-10-14T05:49:58.760Z,101294.96
2017-10-14T05:51:04.525Z,101295.17
2017-10-14T05:52:10.365Z,101297.35
2017-10-14T05:53:16.397Z,101292.65
2017-10-14T05:54:22.190Z,101292.48
2017-10-14T05:55:28.725Z,101296.80
2017-10-14T05:56:35.306Z,101295.44
2017-10-14T05:57:41.828Z,101295.81
2017-10-14T05:58:48.367Z,101294.77
2017-10-14T05:59:54.156Z,101291.73
2017-10-14T06:01:00.694Z,101285.09
2017-10-14T06:02:06.113Z,101291.77
2017-10-14T06:03:11.872Z,101298.20
2017-10-14T06:04:17.637Z,101296.66
2017-10-14T06:05:23.791Z,101292.49
2017-10-14T06:06:30.324Z,101294.03
2017-10-14T06:07:35.915Z,101298.97
2017-10-14T06:08:41.684Z,101289.76
2017-10-14T06:09:47.447Z,101289.33
2017-10-14T06:10:53.041Z,101291.98
2017-10-14T06:11:58.841Z,101291.37
2017-10-14T06:13:04.605Z,101295.63
2017-10-14T06:14:10.372Z,101301.78
2017-10-14T06:15:16.142Z,101297.08
2017-10-14T06:16:22.048Z,101294.59
2017-10-14T06:17:27.807Z,101297.03
2017-10-14T06:18:33.569Z,101295.33
2017-10-14T06:19:39.127Z,101298.41
2017-10-14T06:20:45.657Z,101299.00
2017-10-14T06:21:51.441Z,101301.91
2017-10-14T06:22:57.972Z,101304.56
2017-10-14T06:24:03.732Z,101306.71
2017-10-14T06:25:10.277Z,101302.47
2017-10-14T06:26:16.096Z,101305.09
2017-10-14T06:27:21.888Z,101299.28
2017-10-14T06:28:28.418Z,101304.16
2017-10-14T06:29:34.177Z,101303.95
2017-10-14T06:30:40.717Z,101304.05
2017-10-14T06:31:46.489Z,101302.52
2017-10-14T06:32:52.307Z,101301.19
2017-10-14T06:33:58.076Z,101298.45
2017-10-14T06:35:04.613Z,101302.64
2017-10-14T06:36:11.139Z,101301.48
2017-10-14T06:37:16.919Z,101302.64
2017-10-14T06:38:22.709Z,101307.69
2017-10-14T06:39:28.477Z,101307.21
2017-10-14T06:40:34.237Z,101301.05
2017-10-14T06:41:40.007Z,101308.54
2017-10-14T06:42:46.551Z,101308.91
2017-10-14T06:43:52.353Z,101308.70
2017-10-14T06:44:58.101Z,101301.43
2017-10-14T06:46:03.861Z,101301.56
2017-10-14T06:47:09.629Z,101303.73
2017-10-14T06:48:15.985Z,101310.24
2017-10-14T06:49:22.541Z,101305.23
2017-10-14T06:50:28.888Z,101299.50
2017-10-14T06:51:34.469Z,101302.70
2017-10-14T06:52:40.236Z,101302.66
2017-10-14T06:53:46.019Z,101301.72
2017-10-14T06:54:52.573Z,101305.95
2017-10-14T06:55:59.100Z,101306.72
2017-10-14T06:57:04.864Z,101309.84
2017-10-14T06:58:10.630Z,101310.01
2017-10-14T06:59:17.163Z,101313.86
2017-10-14T07:00:24.448Z,101306.95
2017-10-14T07:01:30.216Z,101306.19
2017-10-14T07:02:36.745Z,101308.23
2017-10-14T07:03:42.573Z,101302.36
2017-10-14T07:04:48.374Z,101302.23
2017-10-14T07:05:54.156Z,101302.41
2017-10-14T07:06:59.928Z,101294.66
2017-10-14T07:08:06.469Z,101298.75
2017-10-14T07:09:12.226Z,101298.06
2017-10-14T07:10:17.993Z,101302.16
2017-10-14T07:11:23.788Z,101302.03
2017-10-14T07:12:30.320Z,101300.57
2017-10-14T07:13:36.084Z,101300.57
2017-10-14T07:14:41.853Z,101308.69
2017-10-14T07:15:48.423Z,101305.66
2017-10-14T07:16:54.985Z,101306.86
2017-10-14T07:18:01.597Z,101311.72
2017-10-14T07:19:07.368Z,101309.24
2017-10-14T07:20:14.640Z,101311.70
2017-10-14T07:21:21.190Z,101311.66
2017-10-14T07:22:27.457Z,101313.61
2017-10-14T07:23:33.234Z,101316.78
2017-10-14T07:24:39.299Z,101321.54
2017-10-14T07:25:45.110Z,101314.15
2017-10-14T07:26:51.180Z,101315.05
2017-10-14T07:27:56.948Z,101310.72
2017-10-14T07:29:02.765Z,101315.70
2017-10-14T07:30:08.636Z,101319.33
2017-10-14T07:31:15.094Z,101310.87
2017-10-14T07:32:20.859Z,101312.73
2017-10-14T07:33:26.806Z,101317.87
2017-10-14T07:34:32.959Z,101314.33
2017-10-14T07:35:38.736Z,101312.38
2017-10-14T07:36:44.537Z,101314.77
2017-10-14T07:37:50.361Z,101306.30
2017-10-14T07:38:56.136Z,101302.10
2017-10-14T07:40:01.952Z,101307.34
2017-10-14T07:41:07.731Z,101306.59
2017-10-14T07:42:14.073Z,101313.16
2017-10-14T07:43:19.848Z,101312.69
2017-10-14T07:44:26.433Z,101307.09
2017-10-14T07:45:32.014Z,101309.53
2017-10-14T07:46:37.805Z,101311.84
2017-10-14T07:47:43.631Z,101317.16
2017-10-14T07:48:50.150Z,101309.56
2017-10-14T07:49:55.966Z,101311.66
2017-10-14T07:51:01.715Z,101303.27
2017-10-14T07:52:07.474Z,101302.47
2017-10-14T07:53:13.253Z,101306.08
2017-10-14T07:54:19.783Z,101304.67
2017-10-14T07:55:25.569Z,101306.87
2017-10-14T07:56:31.410Z,101312.88
2017-10-14T07:57:37.951Z,101309.39
2017-10-14T07:58:44.483Z,101309.94
2017-10-14T07:59:50.251Z,101310.09
2017-10-14T08:00:56.797Z,101305.52
2017-10-14T08:02:02.554Z,101308.91
2017-10-14T08:03:09.090Z,101304.20
2017-10-14T08:04:14.844Z,101305.10
2017-10-14T08:05:21.377Z,101311.86
2017-10-14T08:06:27.066Z,101305.21
2017-10-14T08:07:33.815Z,101304.27
2017-10-14T08:08:39.585Z,101304.88
2017-10-14T08:09:45.705Z,101300.14
2017-10-14T08:10:51.320Z,101306.08
2017-10-14T08:11:57.090Z,101298.28
2017-10-14T08:13:03.437Z,101295.11
2017-10-14T08:14:09.909Z,101287.95
2017-10-14T08:15:16.449Z,101291.32
2017-10-14T08:16:22.194Z,101295.03
2017-10-14T08:17:27.973Z,101293.01
2017-10-14T08:18:33.721Z,101290.58
2017-10-14T08:19:39.476Z,101287.22
2017-10-14T08:20:45.244Z,101291.31
2017-10-14T08:21:50.988Z,101283.95
2017-10-14T08:22:56.764Z,101285.29
2017-10-14T08:24:03.287Z,101287.87
2017-10-14T08:25:09.079Z,101284.05
2017-10-14T08:26:15.660Z,101286.94
2017-10-14T08:27:21.433Z,101296.78
2017-10-14T08:28:27.228Z,101289.16
2017-10-14T08:29:33.008Z,101290.07
2017-10-14T08:30:38.760Z,101293.33
2017-10-14T08:31:44.506Z,101301.16
2017-10-14T08:32:50.291Z,101296.98
2017-10-14T08:33:56.829Z,101300.05
2017-10-14T08:35:03.372Z,101296.50
2017-10-14T08:36:09.970Z,101301.61
2017-10-14T08:37:15.699Z,101300.06
2017-10-14T08:38:22.219Z,101298.27
2017-10-14T08:39:27.994Z,101298.05
2017-10-14T08:40:34.549Z,101294.86
2017-10-14T08:41:40.298Z,101300.35
2017-10-14T08:42:46.800Z,101303.05
2017-10-14T08:43:52.592Z,101296.98
2017-10-14T08:44:59.860Z,101302.05
2017-10-14T08:46:05.611Z,101299.97
2017-10-14T08:47:12.144Z,101305.30
2017-10-14T08:48:17.892Z,101307.77
2017-10-14T08:49:23.637Z,101306.23
2017-10-14T08:50:30.184Z,101304.28
2017-10-14T08:51:35.961Z,101303.02
2017-10-14T08:52:42.495Z,101302.16
2017-10-14T08:53:48.236Z,101299.94
2017-10-14T08:54:53.985Z,101301.59
2017-10-14T08:55:59.748Z,101313.48
2017-10-14T08:57:06.253Z,101311.39
2017-10-14T08:58:12.000Z,101308.66
2017-10-14T08:59:17.736Z,101312.91
2017-10-14T09:00:23.548Z,101313.54
2017-10-14T09:01:29.904Z,101320.88
2017-10-14T09:02:35.689Z,101323.61
2017-10-14T09:03:41.434Z,101318.97
2017-10-14T09:04:47.185Z,101322.66
2017-10-14T09:05:52.967Z,101318.67
2017-10-14T09:06:59.504Z,101319.30
2017-10-14T09:08:06.025Z,101321.25
2017-10-14T09:09:11.770Z,101316.12
2017-10-14T09:10:17.567Z,101314.39
2017-10-14T09:11:23.633Z,101316.69
2017-10-14T09:12:29.407Z,101321.06
2017-10-14T09:13:35.154Z,101320.40
2017-10-14T09:14:40.896Z,101317.69
2017-10-14T09:15:46.650Z,101317.69
2017-10-14T09:16:53.157Z,101317.50
2017-10-14T09:17:58.932Z,101319.25
2017-10-14T09:19:04.693Z,101314.06
2017-10-14T09:20:10.424Z,101314.91
2017-10-14T09:21:16.173Z,101319.71
2017-10-14T09:22:21.942Z,101320.48
2017-10-14T09:23:28.482Z,101310.02
2017-10-14T09:24:34.814Z,101313.52
2017-10-14T09:25:40.373Z,101310.41
2017-10-14T09:26:46.711Z,101312.63
2017-10-14T09:27:52.252Z,101315.20
2017-10-14T09:28:57.860Z,101306.48
2017-10-14T09:30:03.431Z,101314.05
2017-10-14T09:31:09.212Z,101310.78
2017-10-14T09:32:14.773Z,101315.96
2017-10-14T09:33:20.543Z,101311.97
2017-10-14T09:34:26.160Z,101307.98
2017-10-14T09:35:31.727Z,101315.23
2017-10-14T09:36:37.087Z,101310.97
2017-10-14T09:37:43.416Z,101316.30
2017-10-14T09:38:49.172Z,101311.26
2017-10-14T09:39:55.728Z,101312.17
2017-10-14T09:41:02.241Z,101312.66
2017-10-14T09:42:07.994Z,101318.06
2017-10-14T09:43:13.768Z,101319.10
2017-10-14T09:44:19.552Z,101317.96
2017-10-14T09:45:25.334Z,101318.36
2017-10-14T09:46:31.080Z,101319.39
2017-10-14T09:47:38.341Z,101313.66
2017-10-14T09:48:44.127Z,101320.67
2017-10-14T09:49:50.637Z,101314.53
2017-10-14T09:50:56.414Z,101320.58
2017-10-14T09:52:02.164Z,101326.19
2017-10-14T09:53:08.680Z,101321.50
2017-10-14T09:54:14.433Z,101329.08
2017-10-14T09:55:20.184Z,101323.91
2017-10-14T09:56:25.964Z,101318.19
2017-10-14T09:57:31.717Z,101318.38
2017-10-14T09:58:37.475Z,101329.21
2017-10-14T09:59:43.220Z,101323.48
2017-10-14T10:00:48.964Z,101334.32
2017-10-14T10:01:54.739Z,101326.53
2017-10-14T10:03:01.257Z,101328.14
2017-10-14T10:04:07.009Z,101324.17
2017-10-14T10:05:12.612Z,101330.19
2017-10-14T10:06:18.352Z,101327.87
2017-10-14T10:07:24.128Z,101319.89
2017-10-14T10:08:29.889Z,101324.38
2017-10-14T10:09:35.637Z,101317.84
2017-10-14T10:10:42.147Z,101327.20
2017-10-14T10:11:47.902Z,101319.16
2017-10-14T10:12:53.677Z,101323.41
2017-10-14T10:14:00.946Z,101320.06
2017-10-14T10:15:06.699Z,101318.19
2017-10-14T10:16:13.568Z,101315.98
2017-10-14T10:17:19.318Z,101318.05
2017-10-14T10:18:25.142Z,101324.58
2017-10-14T10:19:30.992Z,101314.09
2017-10-14T10:20:36.767Z,101319.97
2017-10-14T10:21:43.282Z,101313.16
2017-10-14T10:22:49.079Z,101308.77
2017-10-14T10:23:54.840Z,101315.89
2017-10-14T10:25:00.596Z,101315.88
2017-10-14T10:26:06.345Z,101315.02
2017-10-14T10:27:12.144Z,101311.94
2017-10-14T10:28:17.756Z,101308.17
2017-10-14T10:29:24.139Z,101310.78
2017-10-14T10:30:29.895Z,101310.98
2017-10-14T10:31:35.662Z,101309.55
2017-10-14T10:32:41.259Z,101306.44
2017-10-14T10:33:47.006Z,101307.03
2017-10-14T10:34:53.148Z,101301.31
2017-10-14T10:35:59.655Z,101304.30
2017-10-14T10:37:05.453Z,101306.55
2017-10-14T10:38:11.229Z,101310.47
2017-10-14T10:39:16.986Z,101305.60
2017-10-14T10:40:22.765Z,101305.08
2017-10-14T10:41:29.280Z,101307.13
2017-10-14T10:42:35.038Z,101304.59
2017-10-14T10:43:40.776Z,101304.60
2017-10-14T10:44:48.031Z,101306.91
2017-10-14T10:45:53.833Z,101313.00
2017-10-14T10:47:00.348Z,101298.72
2017-10-14T10:48:06.093Z,101307.45
2017-10-14T10:49:11.855Z,101308.95
2017-10-14T10:50:17.389Z,101308.19
2017-10-14T10:51:23.744Z,101310.02
2017-10-14T10:52:30.257Z,101307.13
2017-10-14T10:53:35.999Z,101306.88
2017-10-14T10:54:41.754Z,101303.34
2017-10-14T10:55:47.522Z,101303.34
2017-10-14T10:56:54.114Z,101299.44
2017-10-14T10:57:59.724Z,101297.86
2017-10-14T10:59:06.256Z,101298.38
2017-10-14T11:00:12.046Z,101296.06
2017-10-14T11:01:18.779Z,101304.20
2017-10-14T11:02:24.561Z,101296.56
2017-10-14T11:04:29.332Z,101293.80
2017-10-14T11:05:35.086Z,101299.10
2017-10-14T11:06:40.840Z,101298.08
2017-10-14T11:07:47.553Z,101307.95
2017-10-14T11:08:53.357Z,101295.32
2017-10-14T11:09:59.890Z,101288.09
2017-10-14T11:11:05.654Z,101292.98
2017-10-14T11:12:12.357Z,101298.61
2017-10-14T11:13:18.391Z,101304.04
2017-10-14T11:14:24.455Z,101302.83
2017-10-14T11:15:30.517Z,101297.53
2017-10-14T11:16:38.536Z,101299.72
2017-10-14T11:17:44.531Z,101299.86
2017-10-14T11:18:50.477Z,101296.67
2017-10-14T11:19:56.292Z,101291.09
2017-10-14T11:21:02.048Z,101293.25
2017-10-14T11:22:08.561Z,101285.52
2017-10-14T11:23:14.364Z,101287.92
2017-10-14T11:24:20.166Z,101292.20
2017-10-14T11:25:25.908Z,101291.82
2017-10-14T11:26:31.762Z,101291.19
2017-10-14T11:27:37.513Z,101288.75
2017-10-14T11:28:44.069Z,101294.33
2017-10-14T11:29:50.648Z,101291.97
2017-10-14T11:30:57.162Z,101285.78
2017-10-14T11:32:03.343Z,101286.03
2017-10-14T11:33:09.866Z,101281.77
2017-10-14T11:34:15.616Z,101286.84
2017-10-14T11:35:21.409Z,101292.48
2017-10-14T11:36:27.168Z,101284.02
2017-10-14T11:37:32.916Z,101289.03
2017-10-14T11:38:38.660Z,101284.97
2017-10-14T11:39:44.420Z,101282.31
2017-10-14T11:40:50.209Z,101282.39
2017-10-14T11:41:55.957Z,101283.38
2017-10-14T11:43:02.533Z,101280.70
2017-10-14T11:44:08.297Z,101277.34
2017-10-14T11:45:14.531Z,101277.63
2017-10-14T11:46:20.340Z,101276.74
2017-10-14T11:47:26.897Z,101273.59
2017-10-14T11:48:34.245Z,101275.30
2017-10-14T11:49:39.996Z,101277.68
2017-10-14T11:50:47.273Z,101275.91
2017-10-14T11:51:53.706Z,101273.77
2017-10-14T11:52:59.453Z,101270.34
2017-10-14T11:54:05.207Z,101272.31
2017-10-14T11:55:11.403Z,101276.64
2017-10-14T11:56:17.193Z,101265.93
2017-10-14T11:57:23.004Z,101270.87
2017-10-14T11:58:28.764Z,101271.03
2017-10-14T11:59:34.516Z,101273.08
2017-10-14T12:00:40.415Z,101267.47
2017-10-14T12:01:46.178Z,101261.82
2017-10-14T12:02:51.985Z,101264.98
2017-10-14T12:03:58.518Z,101269.78
2017-10-14T12:05:04.278Z,101265.52
2017-10-14T12:06:10.872Z,101270.67
2017-10-14T12:07:16.627Z,101261.63
2017-10-14T12:08:22.420Z,101269.27
2017-10-14T12:09:28.943Z,101270.65
2017-10-14T12:10:34.693Z,101265.97
2017-10-14T12:11:40.447Z,101262.91
2017-10-14T12:12:46.225Z,101268.04
2017-10-14T12:13:52.002Z,101261.02
2017-10-14T12:14:57.760Z,101259.62
2017-10-14T12:16:03.510Z,101259.73
2017-10-14T12:17:09.296Z,101256.84
2017-10-14T12:18:15.113Z,101252.59
2017-10-14T12:19:20.908Z,101250.66
2017-10-14T12:20:26.713Z,101250.39
2017-10-14T12:21:33.224Z,101252.16
2017-10-14T12:22:44.769Z,101252.71
2017-10-14T12:23:50.518Z,101247.22
2017-10-14T12:24:57.064Z,101252.05
2017-10-14T12:26:02.619Z,101255.80
2017-10-14T12:27:08.368Z,101257.27
2017-10-14T12:28:14.901Z,101254.56
2017-10-14T12:29:20.664Z,101258.53
2017-10-14T12:30:26.338Z,101254.84
2017-10-14T12:31:32.843Z,101260.11
2017-10-14T12:32:38.602Z,101258.95
2017-10-14T12:33:44.374Z,101263.31